createdAt,value
2023-04-11T00:00:42.490Z,99847.47
2023-04-11T00:05:45.525Z,99838.56
2023-04-11T00:10:49.656Z,99835.88
2023-04-11T00:15:55.362Z,99835.41
2023-04-11T00:20:58.136Z,99842.63
2023-04-11T00:26:02.387Z,99840.78
2023-04-11T00:31:05.403Z,99835.84
2023-04-11T00:36:09.496Z,99839.66
2023-04-11T00:41:13.622Z,99845.88
2023-04-11T00:46:17.038Z,99841.50
2023-04-11T00:51:19.955Z,99849.94
2023-04-11T00:56:24.098Z,99854.47
2023-04-11T01:01:30.067Z,99847.53
2023-04-11T01:06:33.625Z,99845.72
2023-04-11T01:11:37.825Z,99847.53
2023-04-11T01:16:40.758Z,99843.41
2023-04-11T01:21:43.618Z,99823.91
2023-04-11T01:26:47.688Z,99828.56
2023-04-11T01:31:52.327Z,99832.38
2023-04-11T01:36:55.165Z,99828.97
2023-04-11T01:41:59.387Z,99823.72
2023-04-11T01:47:02.137Z,99816.22
2023-04-11T01:52:04.980Z,99810.13
2023-04-11T01:57:09.124Z,99789.63
2023-04-11T02:02:12.346Z,99779.28
2023-04-11T02:07:15.326Z,99773.31
2023-04-11T02:12:19.496Z,99771.59
2023-04-11T02:17:25.758Z,99743.03
2023-04-11T02:22:28.789Z,99731.91
2023-04-11T02:27:32.997Z,99726.53
2023-04-11T02:32:35.992Z,99730.44
2023-04-11T02:37:38.793Z,99750.38
2023-04-11T02:42:43.308Z,99746.84
2023-04-11T02:47:46.883Z,99747.22
2023-04-11T02:52:50.195Z,99747.38
2023-04-11T02:57:58.546Z,99747.38
2023-04-11T03:03:02.561Z,99743.25
2023-04-11T03:08:09.851Z,99730.97
2023-04-11T03:13:17.745Z,99719.78
2023-04-11T03:18:22.378Z,99695.75
2023-04-11T03:23:25.308Z,99679.94
2023-04-11T03:28:30.051Z,99663.84
2023-04-11T03:33:33.515Z,99668.47
2023-04-11T03:38:36.545Z,99651.81
2023-04-11T03:43:40.853Z,99642.91
2023-04-11T03:48:47.061Z,99631.59
2023-04-11T03:53:52.266Z,99637.09
2023-04-11T03:59:07.394Z,99627.78
2023-04-11T04:04:23.081Z,99617.03
2023-04-11T04:09:35.732Z,99632.81
2023-04-11T04:14:41.134Z,99639.16
2023-04-11T04:19:45.593Z,99640.16
2023-04-11T04:24:50.149Z,99620.53
2023-04-11T04:30:03.644Z,99618.56
2023-04-11T04:35:22.228Z,99629.69
2023-04-11T04:40:26.060Z,99628.72
2023-04-11T04:45:38.250Z,99627.72
2023-04-11T04:50:41.223Z,99627.41
2023-04-11T04:55:44.171Z,99635.59
2023-04-11T05:00:49.464Z,99650.97
2023-04-11T05:05:59.542Z,99659.03
2023-04-11T05:11:02.651Z,99651.97
2023-04-11T05:16:08.503Z,99658.19
2023-04-11T05:21:11.713Z,99665.47
2023-04-11T05:26:17.340Z,99673.66
2023-04-11T05:31:21.911Z,99661.94
2023-04-11T05:36:24.915Z,99674.66
2023-04-11T05:41:27.701Z,99671.13
2023-04-11T05:46:35.576Z,99650.75
2023-04-11T05:51:38.537Z,99665.28
2023-04-11T05:56:42.842Z,99680.13
2023-04-11T06:01:47.198Z,99688.44
2023-04-11T06:06:49.992Z,99677.84
2023-04-11T06:11:52.890Z,99664.44
2023-04-11T06:16:57.069Z,99655.28
2023-04-11T06:22:00.030Z,99694.91
2023-04-11T06:27:03.497Z,99687.00
2023-04-11T06:32:07.742Z,99684.31
2023-04-11T06:37:10.718Z,99687.25
2023-04-11T06:42:13.481Z,99683.59
2023-04-11T06:47:21.082Z,99680.41
2023-04-11T06:52:24.579Z,99669.81
2023-04-11T06:57:28.632Z,99685.75
2023-04-11T07:02:35.687Z,99691.00
2023-04-11T07:07:38.857Z,99684.91
2023-04-11T07:12:41.627Z,99682.09
2023-04-11T07:17:45.829Z,99677.34
2023-04-11T07:27:51.708Z,99701.13
2023-04-11T07:32:55.912Z,99710.28
2023-04-11T07:37:58.853Z,99702.38
2023-04-11T07:43:02.092Z,99699.81
2023-04-11T07:48:06.629Z,99702.09
2023-04-11T07:53:10.857Z,99702.84
2023-04-11T07:58:13.635Z,99718.66
2023-04-11T08:03:17.963Z,99721.09
2023-04-11T08:08:20.955Z,99730.13
2023-04-11T08:13:23.694Z,99745.09
2023-04-11T08:18:27.827Z,99751.81
2023-04-11T08:23:30.752Z,99763.81
2023-04-11T08:28:33.484Z,99746.63
2023-04-11T08:33:37.709Z,99751.34
2023-04-11T08:38:41.694Z,99740.22
2023-04-11T08:43:46.896Z,99758.38
2023-04-11T08:48:51.155Z,99726.13
2023-04-11T08:54:03.833Z,99730.22
2023-04-11T08:59:11.824Z,99737.22
2023-04-11T09:04:16.038Z,99731.44
2023-04-11T09:09:29.364Z,99712.59
2023-04-11T09:14:32.753Z,99710.63
2023-04-11T09:19:37.200Z,99712.03
2023-04-11T09:24:39.938Z,99693.41
2023-04-11T09:29:43.349Z,99706.63
2023-04-11T09:34:49.417Z,99712.97
2023-04-11T09:39:59.994Z,99701.88
2023-04-11T09:45:03.836Z,99693.28
2023-04-11T09:50:08.968Z,99676.69
2023-04-11T09:55:12.893Z,99678.81
2023-04-11T10:00:17.265Z,99683.41
2023-04-11T10:05:22.114Z,99672.56
2023-04-11T10:10:25.036Z,99678.38
2023-04-11T10:15:28.008Z,99735.97
2023-04-11T10:20:49.771Z,99761.31
2023-04-11T10:25:56.331Z,99806.31
2023-04-11T10:31:17.481Z,99798.41
2023-04-11T10:36:23.045Z,99798.06
2023-04-11T10:41:28.000Z,99789.97
2023-04-11T10:46:30.925Z,99783.25
2023-04-11T10:51:35.373Z,99777.47
2023-04-11T10:56:57.258Z,99765.38
2023-04-11T11:02:01.348Z,99769.50
2023-04-11T11:07:07.130Z,99768.41
2023-04-11T11:12:10.113Z,99763.13
2023-04-11T11:17:13.125Z,99777.69
2023-04-11T11:22:17.527Z,99782.06
2023-04-11T11:27:22.517Z,99789.00
2023-04-11T11:32:28.394Z,99801.75
2023-04-11T11:37:32.950Z,99811.50
2023-04-11T11:42:35.894Z,99817.84
2023-04-11T11:47:42.534Z,99825.38
2023-04-11T11:52:48.900Z,99830.22
2023-04-11T11:57:52.046Z,99834.63
2023-04-11T12:02:55.964Z,99842.00
2023-04-11T12:08:01.217Z,99840.22
2023-04-11T12:13:04.184Z,99848.59
2023-04-11T12:18:07.582Z,99853.81
2023-04-11T12:23:11.912Z,99836.84
2023-04-11T12:28:14.736Z,99855.13
2023-04-11T12:33:17.782Z,99851.44
2023-04-11T12:38:22.688Z,99859.84
2023-04-11T12:43:25.608Z,99850.41
2023-04-11T12:48:28.516Z,99847.22
2023-04-11T12:53:32.902Z,99848.59
2023-04-11T12:58:35.799Z,99843.50
2023-04-11T13:03:38.962Z,99836.47
2023-04-11T13:08:43.465Z,99854.59
2023-04-11T13:13:46.462Z,99851.91
2023-04-11T13:18:49.477Z,99853.44
2023-04-11T13:23:53.725Z,99846.09
2023-04-11T13:28:56.937Z,99849.84
2023-04-11T13:34:00.073Z,99843.53
2023-04-11T13:39:05.798Z,99852.72
2023-04-11T13:44:08.880Z,99859.88
2023-04-11T13:49:12.050Z,99896.47
2023-04-11T13:54:16.347Z,99891.41
2023-04-11T13:59:19.284Z,99899.59
2023-04-11T14:04:22.431Z,99889.03
2023-04-11T14:09:27.279Z,99881.13
2023-04-11T14:14:30.152Z,99873.22
2023-04-11T14:19:32.987Z,99856.31
2023-04-11T14:24:37.122Z,99862.88
2023-04-11T14:29:40.597Z,99859.44
2023-04-11T14:34:43.677Z,99863.16
2023-04-11T14:39:47.942Z,99865.72
2023-04-11T14:44:51.626Z,99854.78
2023-04-11T14:49:54.387Z,99869.69
2023-04-11T14:54:58.780Z,99848.41
2023-04-11T15:00:03.016Z,99860.03
2023-04-11T15:05:08.482Z,99858.19
2023-04-11T15:10:13.355Z,99847.88
2023-04-11T15:15:17.613Z,99869.09
2023-04-11T15:20:20.920Z,99886.78
2023-04-11T15:25:25.159Z,99885.69
2023-04-11T15:30:28.248Z,99881.56
2023-04-11T15:35:31.044Z,99884.25
2023-04-11T15:40:35.423Z,99888.78
2023-04-11T15:45:39.413Z,99877.63
2023-04-11T15:50:42.419Z,99883.84
2023-04-11T15:55:47.647Z,99886.78
2023-04-11T16:00:51.309Z,99892.31
2023-04-11T16:05:54.310Z,99889.63
2023-04-11T16:10:58.507Z,99900.84
2023-04-11T16:16:01.514Z,99899.84
2023-04-11T16:21:04.889Z,99912.16
2023-04-11T16:26:09.612Z,99901.06
2023-04-11T16:31:15.140Z,99893.06
2023-04-11T16:36:18.053Z,99915.50
2023-04-11T16:41:22.348Z,99914.56
2023-04-11T16:46:25.326Z,99922.25
2023-04-11T16:51:28.446Z,99922.06
2023-04-11T16:56:32.659Z,99930.59
2023-04-11T17:01:35.637Z,99945.13
2023-04-11T17:06:38.785Z,99944.41
2023-04-11T17:11:42.921Z,99989.13
2023-04-11T17:16:46.373Z,100022.22
2023-04-11T17:21:49.229Z,100031.22
2023-04-11T17:26:53.408Z,100048.75
2023-04-11T17:31:56.666Z,100082.38
2023-04-11T17:36:59.624Z,100094.41
2023-04-11T17:42:03.780Z,100119.69
2023-04-11T17:47:07.151Z,100132.56
2023-04-11T17:52:09.899Z,100120.34
2023-04-11T17:57:15.103Z,100124.16
2023-04-11T18:02:19.516Z,100087.66
2023-04-11T18:07:24.364Z,100076.75
2023-04-11T18:12:29.499Z,100103.06
2023-04-11T18:17:33.235Z,100106.59
2023-04-11T18:22:36.343Z,100119.19
2023-04-11T18:27:40.750Z,100144.47
2023-04-11T18:32:48.651Z,100154.50
2023-04-11T18:37:53.968Z,100157.31
2023-04-11T18:42:58.582Z,100162.69
2023-04-11T18:48:01.676Z,100161.56
2023-04-11T18:53:05.802Z,100164.88
2023-04-11T18:58:15.238Z,100146.91
2023-04-11T19:03:19.617Z,100137.72
2023-04-11T19:08:22.563Z,100123.31
2023-04-11T19:13:26.781Z,100105.47
2023-04-11T19:18:30.043Z,100096.94
2023-04-11T19:23:33.232Z,100092.88
2023-04-11T19:28:37.340Z,100092.03
2023-04-11T19:33:40.250Z,100090.66
2023-04-11T19:38:43.338Z,100095.78
2023-04-11T19:43:48.400Z,100104.69
2023-04-11T19:48:51.461Z,100096.75
2023-04-11T19:53:54.371Z,100094.78
2023-04-11T19:58:58.492Z,100090.25
2023-04-11T20:04:02.268Z,100092.81
2023-04-11T20:09:05.581Z,100099.03
2023-04-11T20:14:09.678Z,100096.22
2023-04-11T20:19:12.529Z,100083.88
2023-04-11T20:24:15.441Z,100080.97
2023-04-11T20:29:21.257Z,100090.72
2023-04-11T20:34:24.121Z,100075.44
2023-04-11T20:39:27.436Z,100076.44
2023-04-11T20:44:34.072Z,100078.13
2023-04-11T20:49:36.825Z,100079.13
2023-04-11T20:54:40.915Z,100082.53
2023-04-11T20:59:45.024Z,100078.13
2023-04-11T21:04:51.446Z,100077.28
2023-04-11T21:09:56.210Z,100078.28
2023-04-11T21:15:00.578Z,100084.75
2023-04-11T21:20:07.280Z,100086.59
2023-04-11T21:25:10.336Z,100089.28
2023-04-11T21:30:14.998Z,100078.94
2023-04-11T21:35:17.855Z,100079.78
2023-04-11T21:40:20.767Z,100073.78
2023-04-11T21:45:24.886Z,100078.72
2023-04-11T21:50:27.754Z,100085.53
2023-04-11T21:55:30.564Z,100079.59
2023-04-11T22:00:34.734Z,100080.56
2023-04-11T22:05:38.355Z,100075.44
2023-04-11T22:10:47.755Z,100083.63
2023-04-11T22:15:58.605Z,100094.16
2023-04-11T22:21:03.062Z,100087.66
2023-04-11T22:26:06.519Z,100087.78
2023-04-11T22:31:13.530Z,100083.41
2023-04-11T22:36:16.480Z,100076.41
2023-04-11T22:41:19.253Z,100074.59
2023-04-11T22:46:23.794Z,100070.34
2023-04-11T22:51:29.870Z,100069.63
2023-04-11T22:56:32.752Z,100063.66
2023-04-11T23:01:37.030Z,100064.75
2023-04-11T23:06:39.811Z,100053.44
2023-04-11T23:11:42.635Z,100038.69
2023-04-11T23:16:46.789Z,100047.00
2023-04-11T23:21:49.734Z,100046.28
2023-04-11T23:26:52.551Z,100039.47
2023-04-11T23:31:56.673Z,100030.81
2023-04-11T23:36:59.471Z,100028.41
2023-04-11T23:42:02.409Z,100026.94
2023-04-11T23:47:07.089Z,100016.47
2023-04-11T23:52:11.119Z,100006.94
2023-04-11T23:57:13.914Z,100000.00
